Main page
METAR-TAF:

METAR-TAF

Airports :

Muskoka Airport

Muskoka, Ontario, Canada

latitude: 44-58N, longitude: 079-18W, elevation: 918 ft

Current weather observation

The report was made 52 minutes ago, at 05:00 UTC
Wind 6 mph from the South/Southeast
Temperature 73°F
Humidity 89%
Pressure 30.03 in. Hg
Visibility: 9 miles
Scattered clouds at a height of 4900 ft

METAR: CYQA 180500Z AUTO 15005KT 9SM SCT049 23/21 A3003 RMK SLP169 DENSITY ALT 1900FT

Time: 01:52 (05:52 UTC)

Forecast

The report was made 10 hours and 12 minutes ago, at 19:40 UTC
Forecast valid from 17 at 20 UTC to 18 at 02 UTC
Wind 9 mph from the West
Visibility: 6 miles
Scattered clouds at a height of 5000 ft
Becoming
from 17 at 23 UTC to 18 at 01 UTC
Wind 3 mph from variable directions

TAF: CYQA 171940Z 1720/1802 27008KT P6SM SCT050 BECMG 1723/1801 VRB03KT RMK FCST BASED ON AUTO OBS. NXT FCST BY 181200Z

Weather observations and forecasts of more than 4000 airports (METAR and TAF reports).

The available stations are represented by yellow and red dots on the map.

Hover mouse over dot to see the name of the station.

Then click to see weather observations and forecasts.

To change the map : click on the green buttons with a black cross to zoom in, on the green button with a dash to zoom out, or on the green arrows for adjacent maps.


METAR-TAF: